»·PEaware :: N968LT S50-74S

N968LT :: S50-74S

FLIGHT INFORMATION

Flight Status: Arrived
Operator: Privately registered:
United States
More flights under this callsign
Pilot: Danny R. (17997)
Aircraft: CESSNA 172 SKYHAWK
(C172)
More flights by this aircraft type
Origin: S50 Auburn Mun
United States
Destination: 74S Anacortes
United States
More flights between these airports :: More routes between these airports
Route: +JAWBN CVV
File this flight plan on PilotEdge
Remarks:
Altitude:
(Current/Filed)
6,000ft
Speed:
(Current/Filed)
100kts
Departed: 20-Jul-19 10:24 AM
Arrived: 20-Jul-19 11:14 AM
Distance/Time
Traveled:
73nm/0:50
Distance/Time
To Go:
Arrived

Flight Plot

Page will automatically refresh every two minutes.


Map Options




Map Legend


Flown Route
Filed Route
Departure Airport
Arrival Airport
Navaid (VOR, NDB)
Fix

Horizontal Profiles

Position Reports

Time Latitude Longitude Heading Altitude Ground
Speed
20-Jul-19 09:54 47.326334 -122.225422 270 66ft 0kts
20-Jul-19 09:55 47.326334 -122.225422 270 66ft 0kts
20-Jul-19 09:56 47.326334 -122.225422 270 66ft 0kts
20-Jul-19 09:57 47.326334 -122.225422 270 66ft 0kts
20-Jul-19 09:58 47.326334 -122.225422 270 66ft 0kts
20-Jul-19 09:59 47.326334 -122.225422 270 66ft 0kts
20-Jul-19 10:00 47.326334 -122.225422 270 66ft 0kts
20-Jul-19 10:01 47.326334 -122.225422 270 66ft 0kts
20-Jul-19 10:02 47.326334 -122.225422 270 66ft 0kts
20-Jul-19 10:03 47.326334 -122.225422 270 66ft 0kts
20-Jul-19 10:04 47.326334 -122.225422 270 66ft 0kts
20-Jul-19 10:05 47.326334 -122.225422 270 66ft 0kts
20-Jul-19 10:06 47.326334 -122.225437 270 66ft 0kts
20-Jul-19 10:07 47.326334 -122.225437 270 66ft 0kts
20-Jul-19 10:08 47.326334 -122.225437 270 66ft 0kts
20-Jul-19 10:09 47.326334 -122.225437 270 66ft 0kts
20-Jul-19 10:10 47.326334 -122.225437 270 66ft 0kts
20-Jul-19 10:11 47.326334 -122.225437 270 66ft 0kts
20-Jul-19 10:12 47.326334 -122.225437 270 66ft 0kts
20-Jul-19 10:13 47.326334 -122.225437 270 66ft 0kts
20-Jul-19 10:14 47.326334 -122.225437 270 66ft 0kts
20-Jul-19 10:15 47.326334 -122.225437 270 66ft 0kts
20-Jul-19 10:16 47.326273 -122.225647 210 66ft 5kts
20-Jul-19 10:17 47.323643 -122.225669 180 66ft 8kts
20-Jul-19 10:18 47.323052 -122.226004 276 66ft 0kts
20-Jul-19 10:19 47.323052 -122.226004 276 66ft 0kts
20-Jul-19 10:20 47.323052 -122.226004 276 66ft 0kts
20-Jul-19 10:21 47.323052 -122.226004 276 66ft 0kts
20-Jul-19 10:22 47.323052 -122.226004 276 66ft 0kts
20-Jul-19 10:23 47.327680 -122.226631 0 80ft 78kts
20-Jul-19 10:24 47.352069 -122.223139 8 950ft 91kts
20-Jul-19 10:25 47.366968 -122.236737 267 1801ft 91kts
20-Jul-19 10:26 47.365090 -122.274842 266 2641ft 96kts
20-Jul-19 10:27 47.362246 -122.316565 267 3109ft 110kts
20-Jul-19 10:28 47.363660 -122.361306 296 3390ft 101kts
20-Jul-19 10:29 47.374908 -122.399872 297 4038ft 106kts
20-Jul-19 10:30 47.387395 -122.440177 296 4089ft 112kts
20-Jul-19 10:31 47.405858 -122.473050 321 4747ft 105kts
20-Jul-19 10:32 47.429387 -122.493534 336 5569ft 98kts
20-Jul-19 10:33 47.455497 -122.510541 335 6072ft 111kts
20-Jul-19 10:34 47.484719 -122.530618 336 6066ft 115kts
20-Jul-19 10:35 47.514391 -122.546311 346 6009ft 113kts
20-Jul-19 10:36 47.545166 -122.557736 346 6010ft 114kts
20-Jul-19 10:37 47.574649 -122.574978 335 6009ft 114kts
20-Jul-19 10:38 47.603578 -122.595082 335 6009ft 116kts
20-Jul-19 10:39 47.632957 -122.615461 335 6009ft 116kts
20-Jul-19 10:40 47.662260 -122.635823 335 6009ft 116kts
20-Jul-19 10:41 47.691833 -122.654241 335 6008ft 116kts
20-Jul-19 10:42 47.721339 -122.674347 335 6009ft 116kts
20-Jul-19 10:44 47.750769 -122.694426 335 6009ft 116kts
20-Jul-19 10:45 47.780211 -122.714522 335 6009ft 116kts
20-Jul-19 10:46 47.810760 -122.730032 345 6009ft 116kts
20-Jul-19 10:47 47.842176 -122.741688 354 6009ft 116kts
20-Jul-19 10:48 47.874545 -122.742861 359 6017ft 116kts
20-Jul-19 10:49 47.906819 -122.743640 358 6023ft 115kts
20-Jul-19 10:50 47.936991 -122.758398 331 6027ft 115kts
20-Jul-19 10:51 47.964567 -122.782440 329 6036ft 115kts
20-Jul-19 10:52 47.991909 -122.807119 328 6045ft 114kts
20-Jul-19 10:53 48.018937 -122.832368 328 6022ft 116kts
20-Jul-19 10:54 48.049090 -122.834397 19 6000ft 115kts
20-Jul-19 10:55 48.079014 -122.817607 19 6000ft 115kts
20-Jul-19 10:56 48.108253 -122.801360 19 5999ft 115kts
20-Jul-19 10:57 48.138366 -122.784668 19 5999ft 115kts
20-Jul-19 10:58 48.168355 -122.767938 19 5985ft 116kts
20-Jul-19 10:59 48.198439 -122.751029 19 5423ft 117kts
20-Jul-19 11:00 48.228984 -122.733885 19 4620ft 114kts
20-Jul-19 11:01 48.258974 -122.721063 6 3816ft 111kts
20-Jul-19 11:02 48.290072 -122.713992 7 3052ft 119kts
20-Jul-19 11:03 48.320990 -122.706557 7 3000ft 111kts
20-Jul-19 11:04 48.352009 -122.699014 7 3000ft 113kts
20-Jul-19 11:04 48.377832 -122.692712 7 2999ft 112kts
20-Jul-19 11:05 48.408527 -122.685204 7 2990ft 103kts
20-Jul-19 11:07 48.439498 -122.683331 341 2223ft 97kts
20-Jul-19 11:07 48.460452 -122.683300 23 1463ft 93kts
20-Jul-19 11:08 48.483123 -122.670636 22 700ft 78kts
20-Jul-19 11:09 48.502297 -122.660141 19 703ft 77kts
20-Jul-19 11:10 48.522925 -122.658203 293 1597ft 87kts
20-Jul-19 11:11 48.503004 -122.684543 195 1411ft 144kts
20-Jul-19 11:12 48.485604 -122.669488 23 835ft 71kts
20-Jul-19 11:13 48.501261 -122.660992 19 245ft 21kts
20-Jul-19 11:14 48.501923 -122.660600 23 245ft 0kts

Navigation Log

Ident Type
Flight plan parsing failed, navigation log unavailable